Time;durP1;ratioP1;P1;durP2;ratioP2;P2;SDS_P1;SDS_P2;PMS_P1;PMS_P2;Temp;Humidity;BMP_temperature;BMP_pressure;BME280_temperature;BME280_humidity;BME280_pressure;Samples;Min_cycle;Max_cycle;Signal;HPM_P1;HPM_P2
2022/05/07 00:01:21;;;;;;;10.45;5.45;;;19.10;52.90;;;;;;5052344;28;20189;-72
2022/05/07 00:03:48;;;;;;;8.35;4.85;;;19.10;52.80;;;;;;5056830;28;20195;-72
2022/05/07 00:06:17;;;;;;;8.70;4.95;;;19.00;52.70;;;;;;5056577;28;20195;-72
2022/05/07 00:08:44;;;;;;;10.45;5.38;;;19.10;52.80;;;;;;5053509;28;20233;-71
2022/05/07 00:11:14;;;;;;;7.60;4.90;;;19.10;52.90;;;;;;5053541;28;20196;-72
2022/05/07 00:13:42;;;;;;;9.57;4.78;;;19.00;52.70;;;;;;5053249;28;20212;-71
2022/05/07 00:18:53;;;;;;;7.50;4.97;;;19.00;52.70;;;;;;5053565;28;20211;-72
2022/05/07 00:21:21;;;;;;;9.48;4.95;;;19.00;52.70;;;;;;5052071;28;20282;-72
2022/05/07 00:23:48;;;;;;;6.18;4.78;;;19.00;52.60;;;;;;5051695;28;20218;-72
2022/05/07 00:26:15;;;;;;;9.60;4.93;;;19.00;52.60;;;;;;5052011;28;20652;-71
2022/05/07 00:28:42;;;;;;;5.18;4.53;;;19.00;52.70;;;;;;5051782;28;20265;-71
2022/05/07 00:31:09;;;;;;;6.45;4.55;;;19.00;52.60;;;;;;5051378;28;20191;-71
2022/05/07 00:33:36;;;;;;;6.82;4.80;;;19.00;52.60;;;;;;5052915;28;20601;-71
2022/05/07 00:36:04;;;;;;;6.07;4.78;;;18.90;53.60;;;;;;5053082;28;20286;-71
2022/05/07 00:38:32;;;;;;;5.78;4.38;;;18.90;54.50;;;;;;5051513;28;20367;-72
2022/05/07 00:40:59;;;;;;;7.15;4.95;;;18.90;54.70;;;;;;5052228;28;20219;-71
2022/05/07 00:43:34;;;;;;;6.63;4.55;;;18.90;54.60;;;;;;5052965;28;20191;-72
2022/05/07 00:46:01;;;;;;;6.57;4.82;;;19.00;54.70;;;;;;5052550;28;20227;-72
2022/05/07 00:48:28;;;;;;;7.57;4.78;;;18.90;54.50;;;;;;5051196;28;20791;-72
2022/05/07 00:53:41;;;;;;;6.45;4.40;;;18.90;54.30;;;;;;5055179;28;20662;-72
2022/05/07 00:56:08;;;;;;;5.78;4.25;;;18.90;54.20;;;;;;5054782;28;20616;-72
2022/05/07 00:58:35;;;;;;;4.95;4.15;;;18.90;54.10;;;;;;5054783;28;20227;-71
2022/05/07 01:01:02;;;;;;;5.07;4.25;;;18.90;54.20;;;;;;5055941;28;20278;-72
2022/05/07 01:03:30;;;;;;;5.93;4.70;;;18.90;54.20;;;;;;5054935;28;20221;-71
2022/05/07 01:05:57;;;;;;;6.22;4.30;;;18.90;54.00;;;;;;5054713;28;20188;-72
2022/05/07 01:08:25;;;;;;;5.85;4.47;;;18.80;53.90;;;;;;5080988;22;20325;-61
2022/05/07 01:10:55;;;;;;;6.15;4.75;;;18.80;53.80;;;;;;5074415;28;20194;-61
2022/05/07 01:13:23;;;;;;;5.13;4.10;;;18.80;53.80;;;;;;5074134;28;20195;-61
2022/05/07 01:15:55;;;;;;;6.47;4.40;;;18.80;53.60;;;;;;5074527;28;20786;-61
2022/05/07 01:18:23;;;;;;;5.25;4.38;;;18.80;53.70;;;;;;5074442;28;20322;-61
2022/05/07 01:20:50;;;;;;;5.47;4.45;;;18.80;53.60;;;;;;5074119;28;20199;-61
2022/05/07 01:23:19;;;;;;;4.75;4.18;;;18.80;53.60;;;;;;5075015;28;20555;-61
2022/05/07 01:25:47;;;;;;;4.65;4.15;;;18.70;53.60;;;;;;5074065;28;20195;-61
2022/05/07 01:28:14;;;;;;;5.82;4.28;;;18.80;53.60;;;;;;5074058;28;20765;-61
2022/05/07 01:30:42;;;;;;;4.80;4.30;;;18.70;53.50;;;;;;5075220;28;20233;-61
2022/05/07 01:33:09;;;;;;;6.70;4.65;;;18.70;53.50;;;;;;5073840;28;20199;-61
2022/05/07 01:35:36;;;;;;;5.07;4.47;;;18.70;53.30;;;;;;5073750;28;20202;-61
2022/05/07 01:38:05;;;;;;;4.35;3.95;;;18.70;53.50;;;;;;5073730;28;20217;-61
2022/05/07 01:40:36;;;;;;;6.38;4.32;;;18.70;53.50;;;;;;5073728;28;20229;-61
2022/05/07 01:43:04;;;;;;;5.18;4.10;;;18.60;53.40;;;;;;5073732;28;20227;-61
2022/05/07 01:45:31;;;;;;;4.70;4.30;;;18.60;53.40;;;;;;5073654;28;20195;-61
2022/05/07 01:48:11;;;;;;;5.07;4.20;;;18.60;53.50;;;;;;5073537;28;20209;-61
2022/05/07 01:50:49;;;;;;;6.30;4.32;;;18.60;53.40;;;;;;5073793;28;20727;-61
2022/05/07 01:53:22;;;;;;;5.32;4.18;;;18.60;53.50;;;;;;5073590;28;20195;-61
2022/05/07 01:55:53;;;;;;;5.10;4.28;;;18.50;53.40;;;;;;5073396;28;20328;-61
2022/05/07 01:58:28;;;;;;;4.97;3.80;;;18.50;53.30;;;;;;5073529;28;20214;-61
2022/05/07 02:00:58;;;;;;;5.88;4.40;;;18.60;53.50;;;;;;5074164;28;20195;-61
2022/05/07 02:03:26;;;;;;;4.75;3.90;;;18.50;53.10;;;;;;5074392;28;20562;-61
2022/05/07 02:05:53;;;;;;;4.53;4.13;;;18.50;53.40;;;;;;5073172;28;20641;-61
2022/05/07 02:08:22;;;;;;;5.05;4.15;;;18.50;53.30;;;;;;5073165;28;20709;-61
2022/05/07 02:10:49;;;;;;;4.97;4.18;;;18.50;53.20;;;;;;5073214;28;20199;-61
2022/05/07 02:13:18;;;;;;;4.93;4.43;;;18.50;53.30;;;;;;5074302;28;20191;-61
2022/05/07 02:15:45;;;;;;;4.90;4.32;;;18.50;53.40;;;;;;5073179;28;20199;-61
2022/05/07 02:18:14;;;;;;;4.78;4.30;;;18.40;53.30;;;;;;5072947;28;20215;-61
2022/05/07 02:20:41;;;;;;;5.57;4.63;;;18.40;53.10;;;;;;5074369;28;20182;-61
2022/05/07 02:23:08;;;;;;;4.40;4.00;;;18.40;53.10;;;;;;5073004;28;20248;-61
2022/05/07 02:25:35;;;;;;;4.32;3.80;;;18.40;53.30;;;;;;5072884;28;20206;-61
2022/05/07 02:28:05;;;;;;;4.45;4.05;;;18.40;53.10;;;;;;5074229;28;20213;-61
2022/05/07 02:30:34;;;;;;;5.80;4.57;;;18.40;53.00;;;;;;5072914;28;20688;-61
2022/05/07 02:33:04;;;;;;;5.40;4.20;;;18.30;53.10;;;;;;5073246;28;20240;-61
2022/05/07 02:35:35;;;;;;;5.10;4.60;;;18.40;53.30;;;;;;5072954;28;20199;-61
2022/05/07 02:38:02;;;;;;;4.68;4.15;;;18.30;53.20;;;;;;5072757;28;20234;-61
2022/05/07 02:40:30;;;;;;;4.60;4.10;;;18.30;53.10;;;;;;5072630;28;20218;-61
2022/05/07 02:42:58;;;;;;;4.13;3.72;;;18.30;52.90;;;;;;5072533;28;20206;-61
2022/05/07 02:45:25;;;;;;;4.30;4.00;;;18.30;52.90;;;;;;5141656;22;20593;-73
2022/05/07 02:48:02;;;;;;;4.78;4.20;;;18.30;52.90;;;;;;5053695;28;20301;-74
2022/05/07 02:50:29;;;;;;;4.28;3.88;;;18.30;52.80;;;;;;5053549;28;20207;-74
2022/05/07 02:52:56;;;;;;;5.25;4.75;;;18.30;52.80;;;;;;5054531;28;20210;-73
2022/05/07 02:55:23;;;;;;;4.30;3.90;;;18.30;52.90;;;;;;5059998;28;20235;-73
2022/05/07 02:57:54;;;;;;;4.47;4.07;;;18.30;52.80;;;;;;5057804;28;20310;-73
2022/05/07 03:00:23;;;;;;;4.53;4.13;;;18.30;52.80;;;;;;5057832;28;20202;-74
2022/05/07 03:02:50;;;;;;;4.82;4.35;;;18.30;52.80;;;;;;5057204;28;20210;-74
2022/05/07 03:05:19;;;;;;;5.63;4.25;;;18.20;52.60;;;;;;5057692;28;20196;-74
2022/05/07 03:07:49;;;;;;;4.65;4.20;;;18.20;52.50;;;;;;5057403;28;20214;-73
2022/05/07 03:10:20;;;;;;;4.32;3.97;;;18.30;52.30;;;;;;5057374;28;20196;-73
2022/05/07 03:12:47;;;;;;;4.55;4.15;;;18.20;52.10;;;;;;5054441;28;20572;-74
2022/05/07 03:15:14;;;;;;;5.03;4.07;;;18.20;51.80;;;;;;5052729;28;20192;-74
2022/05/07 03:17:41;;;;;;;4.32;3.92;;;18.20;51.40;;;;;;5052810;28;20223;-73
2022/05/07 03:20:12;;;;;;;4.40;4.00;;;18.30;51.90;;;;;;5052877;28;20298;-74
2022/05/07 03:22:43;;;;;;;5.05;4.65;;;18.30;51.90;;;;;;5052903;28;20261;-74
2022/05/07 03:25:10;;;;;;;5.22;4.70;;;18.30;51.80;;;;;;5052914;28;20787;-74
2022/05/07 03:27:37;;;;;;;5.18;4.68;;;18.30;51.80;;;;;;5053025;28;20229;-74
2022/05/07 03:30:09;;;;;;;4.93;4.40;;;18.30;51.90;;;;;;5053070;28;20187;-74
2022/05/07 03:32:49;;;;;;;5.32;4.82;;;18.20;51.60;;;;;;5052884;28;20196;-74
2022/05/07 03:35:16;;;;;;;5.00;4.50;;;18.20;51.60;;;;;;5053198;28;20205;-73
2022/05/07 03:37:46;;;;;;;4.85;4.40;;;18.30;51.80;;;;;;5054188;28;20227;-74
2022/05/07 03:40:13;;;;;;;4.82;4.40;;;18.30;51.70;;;;;;5054417;28;20197;-74
2022/05/07 03:42:43;;;;;;;4.47;4.07;;;18.20;51.60;;;;;;5054426;28;20195;-74
2022/05/07 03:45:11;;;;;;;5.65;4.43;;;18.20;51.80;;;;;;5053714;28;20370;-74
2022/05/07 03:47:40;;;;;;;4.45;4.05;;;18.30;51.60;;;;;;5053821;28;20211;-74
2022/05/07 03:50:10;;;;;;;4.45;4.05;;;18.20;51.60;;;;;;5053322;28;20199;-74
2022/05/07 03:55:24;;;;;;;5.28;4.75;;;18.30;51.50;;;;;;5052521;28;20195;-74
2022/05/07 03:57:52;;;;;;;4.78;4.38;;;18.30;51.30;;;;;;5052975;28;20226;-71
2022/05/07 04:00:26;;;;;;;4.60;4.20;;;18.30;51.40;;;;;;5052792;28;20218;-71
2022/05/07 04:02:55;;;;;;;4.88;4.40;;;18.30;51.40;;;;;;5057815;28;20196;-71
2022/05/07 04:05:34;;;;;;;4.78;4.38;;;18.30;51.30;;;;;;5054116;28;20222;-71
2022/05/07 04:08:10;;;;;;;4.50;4.10;;;18.30;51.40;;;;;;5052865;28;20207;-73
2022/05/07 04:10:39;;;;;;;4.60;4.22;;;18.30;51.30;;;;;;5053620;28;20218;-74
2022/05/07 04:13:09;;;;;;;4.82;4.43;;;18.30;51.40;;;;;;5053109;28;20202;-73
2022/05/07 04:15:37;;;;;;;5.65;4.40;;;18.20;51.40;;;;;;5052872;28;20286;-73
2022/05/07 04:18:04;;;;;;;4.82;4.20;;;18.20;51.40;;;;;;5052867;28;20600;-73
2022/05/07 04:20:32;;;;;;;4.90;4.50;;;18.20;51.20;;;;;;5052571;28;20257;-73
2022/05/07 04:23:06;;;;;;;4.60;4.20;;;18.20;51.20;;;;;;5052889;28;20192;-73
2022/05/07 04:25:33;;;;;;;4.90;4.50;;;18.20;51.20;;;;;;5053219;28;20191;-73
2022/05/07 04:28:02;;;;;;;4.68;4.30;;;18.20;51.30;;;;;;5056509;28;20632;-73
2022/05/07 04:30:30;;;;;;;4.53;4.13;;;18.20;51.20;;;;;;5056641;28;20225;-73
2022/05/07 04:32:57;;;;;;;4.97;4.63;;;18.30;51.30;;;;;;5055976;28;20290;-73
2022/05/07 04:35:26;;;;;;;4.97;4.55;;;18.20;51.20;;;;;;5056128;28;20660;-73
2022/05/07 04:37:57;;;;;;;5.00;4.55;;;18.30;51.30;;;;;;5056323;28;20349;-73
2022/05/07 04:40:25;;;;;;;4.22;3.92;;;18.20;51.20;;;;;;5055874;28;20203;-73
2022/05/07 04:42:52;;;;;;;4.63;4.22;;;18.20;51.20;;;;;;5055661;28;20281;-73
2022/05/07 04:45:21;;;;;;;5.68;4.78;;;18.20;51.10;;;;;;5055665;28;20205;-73
2022/05/07 04:48:08;;;;;;;4.45;4.15;;;18.30;51.10;;;;;;5056490;28;20386;-73
2022/05/07 04:50:37;;;;;;;5.07;4.60;;;18.30;51.00;;;;;;5055732;28;20199;-73
2022/05/07 04:53:23;;;;;;;5.10;4.60;;;18.40;50.80;;;;;;5057478;28;20194;-73
2022/05/07 04:55:51;;;;;;;4.78;4.45;;;18.40;50.90;;;;;;5055310;28;20274;-73
2022/05/07 04:58:21;;;;;;;4.85;4.45;;;18.50;50.80;;;;;;5055316;28;20231;-73
2022/05/07 05:00:52;;;;;;;5.00;4.45;;;18.50;50.50;;;;;;5055517;28;20196;-73
2022/05/07 05:03:23;;;;;;;5.28;4.80;;;18.60;50.50;;;;;;5055432;28;20191;-73
2022/05/07 05:06:02;;;;;;;5.07;4.68;;;18.70;50.50;;;;;;5055786;28;20210;-74
2022/05/07 05:08:55;;;;;;;5.28;4.88;;;18.80;50.40;;;;;;5054349;28;20215;-73
2022/05/07 05:11:22;;;;;;;4.50;4.05;;;19.00;50.30;;;;;;5055221;28;20199;-73
2022/05/07 05:13:49;;;;;;;4.70;4.30;;;19.10;50.10;;;;;;5055448;28;20195;-75
2022/05/07 05:16:18;;;;;;;4.18;3.88;;;19.30;49.80;;;;;;5055251;28;20210;-73
2022/05/07 05:18:51;;;;;;;4.32;3.92;;;19.50;49.50;;;;;;5055792;28;20273;-74
2022/05/07 05:21:21;;;;;;;4.65;4.00;;;19.70;49.00;;;;;;5054566;28;20195;-73
2022/05/07 05:24:09;;;;;;;4.25;3.95;;;19.80;49.30;;;;;;5055565;28;20233;-73
2022/05/07 05:26:38;;;;;;;4.78;4.38;;;20.00;48.50;;;;;;5054356;28;20202;-73
2022/05/07 05:29:10;;;;;;;4.45;4.05;;;20.10;48.30;;;;;;5054631;28;20203;-73
2022/05/07 05:31:39;;;;;;;4.82;4.43;;;20.30;48.10;;;;;;5054290;28;20249;-73
2022/05/07 05:34:15;;;;;;;4.60;3.90;;;20.40;47.80;;;;;;5054333;28;20187;-73
2022/05/07 05:36:50;;;;;;;4.88;4.47;;;20.50;47.60;;;;;;5054014;28;20214;-73
2022/05/07 05:39:20;;;;;;;4.00;3.70;;;20.70;47.60;;;;;;5054332;28;20290;-73
2022/05/07 05:41:50;;;;;;;4.40;4.00;;;20.80;47.40;;;;;;5054310;28;20196;-73
2022/05/07 05:44:18;;;;;;;4.50;4.10;;;20.90;47.20;;;;;;5054225;28;20206;-74
2022/05/07 05:46:47;;;;;;;4.53;4.13;;;21.00;46.90;;;;;;5055625;28;20601;-73
2022/05/07 05:49:14;;;;;;;5.13;4.63;;;21.10;46.70;;;;;;5054398;28;20195;-74
2022/05/07 05:51:44;;;;;;;5.22;4.82;;;21.20;46.60;;;;;;5054810;28;20214;-73
2022/05/07 05:54:13;;;;;;;4.63;4.22;;;21.30;46.40;;;;;;5053770;28;20582;-73
2022/05/07 05:56:40;;;;;;;4.65;4.25;;;21.40;46.20;;;;;;5053867;28;20278;-73
2022/05/07 05:59:08;;;;;;;4.55;4.25;;;21.50;46.00;;;;;;5053770;28;20722;-73
2022/05/07 06:01:52;;;;;;;4.55;4.18;;;21.60;46.40;;;;;;5053765;28;20625;-74
2022/05/07 06:04:29;;;;;;;5.45;4.60;;;21.70;45.50;;;;;;5053640;28;20180;-73
2022/05/07 06:07:04;;;;;;;5.10;4.70;;;21.80;45.40;;;;;;5053544;28;20236;-72
2022/05/07 06:09:33;;;;;;;5.28;4.78;;;21.90;45.30;;;;;;5053669;28;20199;-73
2022/05/07 06:12:01;;;;;;;4.15;3.85;;;21.90;45.10;;;;;;5054088;28;20199;-74
2022/05/07 06:14:31;;;;;;;5.38;4.97;;;22.10;45.10;;;;;;5053465;28;20202;-74
2022/05/07 06:17:03;;;;;;;4.53;4.10;;;22.10;44.90;;;;;;5053361;28;20251;-73
2022/05/07 06:19:30;;;;;;;4.97;4.55;;;22.20;44.80;;;;;;5053400;28;20286;-74
2022/05/07 06:21:58;;;;;;;4.25;3.95;;;22.20;44.60;;;;;;5053560;28;20668;-73
2022/05/07 06:27:31;;;;;;;4.78;4.38;;;22.40;44.50;;;;;;5053445;28;20222;-73
2022/05/07 06:30:05;;;;;;;4.00;3.70;;;22.50;44.30;;;;;;5053360;28;20196;-74
2022/05/07 06:32:42;;;;;;;3.67;3.40;;;22.60;44.10;;;;;;5053804;28;20563;-74
2022/05/07 06:35:10;;;;;;;3.40;3.13;;;22.60;43.90;;;;;;5053037;28;20210;-73
2022/05/07 06:37:53;;;;;;;3.30;3.10;;;22.70;44.40;;;;;;5052932;28;20234;-74
2022/05/07 06:40:22;;;;;;;4.00;3.70;;;22.80;43.60;;;;;;5053198;28;20230;-74
2022/05/07 06:42:51;;;;;;;3.83;3.53;;;22.80;43.50;;;;;;5052991;28;20195;-74
2022/05/07 06:45:31;;;;;;;3.75;3.45;;;22.90;43.40;;;;;;5052798;28;20230;-74
2022/05/07 06:48:00;;;;;;;3.30;3.10;;;23.00;43.20;;;;;;5052423;28;20696;-74
2022/05/07 06:50:27;;;;;;;3.20;3.00;;;23.10;43.10;;;;;;5052775;28;20199;-74
2022/05/07 06:52:54;;;;;;;3.40;3.20;;;23.10;42.90;;;;;;5052978;28;20199;-73
2022/05/07 06:55:21;;;;;;;2.88;2.67;;;23.20;42.80;;;;;;5053036;28;20528;-74
2022/05/07 06:57:48;;;;;;;3.28;2.97;;;23.30;42.60;;;;;;5053923;28;20286;-73
2022/05/07 07:00:16;;;;;;;3.47;3.17;;;23.40;42.50;;;;;;5052632;28;20249;-73
2022/05/07 07:02:43;;;;;;;3.38;3.15;;;23.40;42.40;;;;;;5054068;28;20240;-74
2022/05/07 07:05:11;;;;;;;3.53;3.22;;;23.50;42.90;;;;;;5052544;28;20202;-73
2022/05/07 07:07:38;;;;;;;3.30;3.00;;;23.50;42.10;;;;;;5052534;28;20215;-74
2022/05/07 07:10:07;;;;;;;2.88;2.67;;;23.60;42.00;;;;;;5052635;28;20227;-74
2022/05/07 07:12:39;;;;;;;3.55;3.25;;;23.60;41.80;;;;;;5053129;28;20225;-74
2022/05/07 07:15:08;;;;;;;3.05;2.85;;;23.70;41.70;;;;;;5052670;28;20195;-73
2022/05/07 07:17:35;;;;;;;3.10;2.90;;;23.80;41.70;;;;;;5053548;28;20217;-73
2022/05/07 07:20:03;;;;;;;3.20;3.00;;;23.80;41.50;;;;;;5053857;28;20681;-73
2022/05/07 07:22:31;;;;;;;3.40;3.10;;;23.90;41.40;;;;;;5052567;28;20199;-74
2022/05/07 07:24:59;;;;;;;2.97;2.78;;;24.00;41.30;;;;;;5053543;28;20214;-74
2022/05/07 07:27:26;;;;;;;3.10;2.90;;;24.00;41.80;;;;;;5052025;28;20302;-74
2022/05/07 07:29:53;;;;;;;3.03;2.83;;;24.00;41.10;;;;;;5052329;28;20203;-73
2022/05/07 07:32:20;;;;;;;3.42;3.13;;;24.10;41.10;;;;;;5051973;28;20557;-73
2022/05/07 07:34:48;;;;;;;3.03;2.83;;;24.20;40.90;;;;;;5053264;28;20205;-73
2022/05/07 07:37:16;;;;;;;3.47;3.00;;;24.20;40.80;;;;;;5051856;28;20574;-73
2022/05/07 07:39:44;;;;;;;2.92;2.72;;;24.30;40.70;;;;;;5051833;28;20222;-73
2022/05/07 07:42:11;;;;;;;3.03;2.67;;;24.30;40.70;;;;;;5053493;28;20196;-73
2022/05/07 07:44:38;;;;;;;3.17;2.97;;;24.30;40.40;;;;;;5052097;28;20348;-75
2022/05/07 07:49:52;;;;;;;3.00;2.70;;;24.40;40.40;;;;;;5071823;28;20182;-72
2022/05/07 07:52:19;;;;;;;2.88;2.67;;;24.50;40.30;;;;;;5215097;22;20296;-70
2022/05/07 07:54:47;;;;;;;2.95;2.75;;;24.50;40.30;;;;;;5053617;28;20203;-72
2022/05/07 07:57:14;;;;;;;3.10;2.90;;;24.50;40.10;;;;;;5053405;28;20580;-71
2022/05/07 07:59:41;;;;;;;3.53;3.25;;;24.60;40.20;;;;;;5053776;28;20314;-72
2022/05/07 08:02:09;;;;;;;3.75;3.05;;;24.60;41.00;;;;;;5057857;28;20218;-71
2022/05/07 08:04:37;;;;;;;3.10;2.90;;;24.70;40.70;;;;;;5059268;28;20683;-68
2022/05/07 08:12:35;;;;;;;3.25;3.00;;;24.80;40.90;;;;;;5056089;28;20215;-72
2022/05/07 08:15:05;;;;;;;11.23;7.35;;;24.90;40.60;;;;;;5057202;28;20200;-72
2022/05/07 08:17:32;;;;;;;15.73;11.07;;;24.90;40.60;;;;;;5057196;28;20206;-72
2022/05/07 08:19:59;;;;;;;59.92;38.97;;;25.00;40.40;;;;;;5056444;28;20703;-73
2022/05/07 08:22:26;;;;;;;116.30;82.15;;;25.10;40.70;;;;;;5055724;28;20227;-72
2022/05/07 08:24:55;;;;;;;114.78;91.28;;;25.10;41.30;;;;;;5056455;28;20278;-73
2022/05/07 08:27:22;;;;;;;162.45;114.03;;;25.10;42.10;;;;;;5056905;28;20262;-72
2022/05/07 08:29:49;;;;;;;98.35;70.85;;;25.10;41.90;;;;;;5059512;28;20196;-71
2022/05/07 08:32:16;;;;;;;115.80;82.85;;;25.20;41.10;;;;;;5057411;28;20293;-72
2022/05/07 08:34:43;;;;;;;104.65;77.65;;;25.30;40.70;;;;;;5056250;28;20199;-73
2022/05/07 08:37:10;;;;;;;99.57;77.20;;;25.30;40.60;;;;;;5055917;28;20199;-72
2022/05/07 08:39:37;;;;;;;89.90;66.85;;;25.40;40.50;;;;;;5056688;28;20293;-73
2022/05/07 08:42:06;;;;;;;90.95;64.35;;;25.40;40.30;;;;;;5055784;28;20306;-73
2022/05/07 08:44:33;;;;;;;90.50;67.30;;;25.40;40.30;;;;;;5055403;28;20241;-72
2022/05/07 08:47:00;;;;;;;70.57;51.42;;;25.50;40.30;;;;;;5055343;28;20206;-72
2022/05/07 08:49:28;;;;;;;70.80;53.92;;;25.50;40.00;;;;;;5055638;28;20199;-72
2022/05/07 08:51:56;;;;;;;72.28;54.30;;;25.50;40.20;;;;;;5056492;28;20726;-72
2022/05/07 08:54:23;;;;;;;64.63;50.65;;;25.50;40.00;;;;;;5056574;28;20191;-72
2022/05/07 08:56:50;;;;;;;64.60;48.95;;;25.60;39.90;;;;;;5056121;28;20265;-72
2022/05/07 08:59:19;;;;;;;71.35;50.90;;;25.60;39.90;;;;;;5056699;28;20302;-72
2022/05/07 09:01:47;;;;;;;66.30;48.15;;;25.60;39.90;;;;;;5056505;28;20219;-72
2022/05/07 09:04:17;;;;;;;63.75;45.08;;;25.60;40.50;;;;;;5055955;28;20191;-72
2022/05/07 09:06:44;;;;;;;58.20;45.88;;;25.60;40.10;;;;;;5054888;28;20655;-72
2022/05/07 09:09:11;;;;;;;55.47;43.63;;;25.60;40.00;;;;;;5058289;28;20234;-73
2022/05/07 09:11:42;;;;;;;54.72;43.45;;;25.50;39.90;;;;;;5054504;28;20265;-73
2022/05/07 09:14:09;;;;;;;51.33;40.65;;;25.50;40.30;;;;;;5055737;28;20199;-71
2022/05/07 09:16:45;;;;;;;50.88;41.20;;;25.50;40.20;;;;;;5057242;28;20187;-73
2022/05/07 09:19:21;;;;;;;52.97;40.65;;;25.40;41.20;;;;;;5055951;28;20215;-71
2022/05/07 09:21:48;;;;;;;49.33;39.58;;;25.30;41.00;;;;;;5055803;28;20586;-71
2022/05/07 09:24:15;;;;;;;50.05;38.45;;;25.30;40.60;;;;;;5260149;23;20651;-68
2022/05/07 09:26:44;;;;;;;19.15;15.07;;;25.30;40.80;;;;;;5079564;28;20194;-69
2022/05/07 09:29:11;;;;;;;11.93;10.45;;;25.20;38.40;;;;;;5082694;28;20254;-69
2022/05/07 09:31:41;;;;;;;8.95;8.05;;;24.90;38.20;;;;;;5079416;28;20309;-69
2022/05/07 09:37:16;;;;;;;7.85;6.18;;;24.20;39.40;;;;;;4998333;28;20602;-68
2022/05/07 09:39:46;;;;;;;9.18;5.57;;;24.20;39.20;;;;;;4998686;28;20228;-69
2022/05/07 09:42:13;;;;;;;6.68;4.80;;;24.00;38.90;;;;;;5033631;28;20222;-68
2022/05/07 09:44:40;;;;;;;5.82;4.95;;;23.80;38.70;;;;;;5075424;28;20674;-68
2022/05/07 09:47:09;;;;;;;5.70;4.70;;;23.60;39.10;;;;;;5074215;28;20256;-68
2022/05/07 09:50:19;;;;;;;5.95;4.40;;;23.50;39.20;;;;;;5074110;28;20195;-68
2022/05/07 09:52:27;;;;;;;5.82;4.47;;;23.50;39.50;;;;;;5074612;28;20601;-68
2022/05/07 09:57:38;;;;;;;4.25;3.28;;;23.40;39.10;;;;;;5043942;28;20199;-68
2022/05/07 10:00:07;;;;;;;5.68;3.25;;;23.40;37.40;;;;;;5074060;28;20234;-69
2022/05/07 10:02:58;;;;;;;3.67;2.90;;;23.50;37.60;;;;;;5075125;28;20654;-68
2022/05/07 10:05:58;;;;;;;2.90;2.60;;;23.60;37.30;;;;;;5073915;28;20248;-68
2022/05/07 10:08:47;;;;;;;2.80;2.60;;;23.50;36.60;;;;;;5073770;28;20195;-68
2022/05/07 10:11:14;;;;;;;2.85;2.50;;;23.40;35.40;;;;;;5073538;28;20226;-68
2022/05/07 10:13:41;;;;;;;2.72;2.40;;;23.50;37.20;;;;;;5073528;28;20248;-69
2022/05/07 10:16:10;;;;;;;2.88;2.58;;;23.50;36.50;;;;;;5073372;28;20658;-68
2022/05/07 10:18:38;;;;;;;2.72;2.42;;;23.60;35.40;;;;;;5074550;28;20210;-69
2022/05/07 10:21:16;;;;;;;2.70;2.25;;;23.70;35.60;;;;;;5074419;28;20190;-68
2022/05/07 10:23:52;;;;;;;5.55;2.90;;;23.80;37.00;;;;;;5075294;28;20567;-71
2022/05/07 10:26:20;;;;;;;3.67;2.70;;;23.90;37.00;;;;;;5174610;22;20295;-66
2022/05/07 10:28:47;;;;;;;3.70;2.78;;;24.00;37.10;;;;;;5055120;28;20636;-67
2022/05/07 10:31:18;;;;;;;3.38;3.00;;;24.00;37.50;;;;;;5053739;28;20310;-71
2022/05/07 10:33:45;;;;;;;3.10;2.83;;;24.00;37.50;;;;;;5053458;28;20202;-71
2022/05/07 10:36:14;;;;;;;3.10;2.78;;;24.00;37.80;;;;;;5053505;28;20206;-70
2022/05/07 10:38:42;;;;;;;3.55;2.70;;;24.00;38.10;;;;;;5054338;28;20699;-72
2022/05/07 10:41:20;;;;;;;3.40;2.90;;;23.90;38.30;;;;;;5053027;28;20259;-71
2022/05/07 10:43:48;;;;;;;3.40;3.10;;;23.90;38.50;;;;;;5054668;28;20200;-70
2022/05/07 10:46:17;;;;;;;2.92;2.67;;;23.90;38.60;;;;;;5054474;28;20258;-71
2022/05/07 10:48:45;;;;;;;4.53;2.53;;;23.80;38.70;;;;;;5056232;28;20219;-67
2022/05/07 10:51:20;;;;;;;3.28;2.85;;;23.90;38.80;;;;;;5054007;28;20223;-69
2022/05/07 10:53:47;;;;;;;3.30;3.00;;;23.90;39.00;;;;;;5052937;28;20199;-71
2022/05/07 10:56:16;;;;;;;3.67;2.80;;;23.90;39.00;;;;;;5053346;28;20199;-73
2022/05/07 10:58:47;;;;;;;3.10;2.80;;;24.00;39.20;;;;;;5059763;28;20200;-70
2022/05/07 11:01:14;;;;;;;2.92;2.63;;;24.00;39.20;;;;;;5052521;28;20306;-70
2022/05/07 11:03:40;;;;;;;3.20;2.90;;;24.00;39.20;;;;;;5052758;28;20218;-70
2022/05/07 11:06:08;;;;;;;3.15;2.45;;;24.00;39.30;;;;;;5052916;28;20582;-70
2022/05/07 11:08:46;;;;;;;3.42;2.60;;;24.00;39.40;;;;;;5054487;28;20587;-70
2022/05/07 11:11:14;;;;;;;3.05;2.40;;;24.00;39.50;;;;;;5054070;28;20207;-69
2022/05/07 11:13:46;;;;;;;3.95;2.80;;;23.90;39.50;;;;;;5053582;28;20199;-70
2022/05/07 11:16:13;;;;;;;3.88;2.70;;;23.90;39.70;;;;;;5052365;28;20203;-71
2022/05/07 11:18:41;;;;;;;2.88;2.67;;;23.90;39.80;;;;;;5052322;28;20581;-70
2022/05/07 11:21:08;;;;;;;2.85;2.65;;;23.80;39.70;;;;;;5052315;28;20247;-70
2022/05/07 11:23:45;;;;;;;3.67;2.70;;;23.80;39.80;;;;;;5085585;23;20326;-67
2022/05/07 11:26:13;;;;;;;2.92;2.63;;;23.80;39.90;;;;;;5072309;28;20522;-67
2022/05/07 11:28:41;;;;;;;2.70;2.50;;;23.80;40.10;;;;;;5073731;28;20202;-67
2022/05/07 11:31:10;;;;;;;2.85;2.65;;;23.80;40.10;;;;;;5073482;28;20211;-67
2022/05/07 11:33:38;;;;;;;3.78;2.78;;;23.70;40.10;;;;;;5072191;28;20213;-67
2022/05/07 11:36:06;;;;;;;2.80;2.60;;;23.80;40.20;;;;;;5071699;28;20199;-68
2022/05/07 11:38:34;;;;;;;2.90;2.60;;;23.80;40.20;;;;;;5072133;28;20209;-67
2022/05/07 11:41:12;;;;;;;3.00;2.80;;;23.80;40.20;;;;;;5073203;28;20245;-67
2022/05/07 11:46:23;;;;;;;2.92;2.60;;;23.80;40.30;;;;;;5052343;28;20205;-67
2022/05/07 11:48:50;;;;;;;3.17;2.90;;;23.80;40.30;;;;;;5073248;28;20190;-67
2022/05/07 11:51:24;;;;;;;4.05;3.13;;;23.80;40.30;;;;;;5073310;28;20872;-66
2022/05/07 11:53:51;;;;;;;2.95;2.55;;;23.80;40.40;;;;;;5072266;28;20671;-68
2022/05/07 11:56:20;;;;;;;2.70;2.50;;;23.80;40.50;;;;;;5072131;28;20191;-67
2022/05/07 11:58:49;;;;;;;2.90;2.60;;;23.80;40.50;;;;;;5118738;22;20284;-66
2022/05/07 12:01:23;;;;;;;2.75;2.50;;;23.80;40.50;;;;;;5056989;28;20612;-73
2022/05/07 12:03:50;;;;;;;2.83;2.53;;;23.80;40.70;;;;;;5055833;28;20191;-68
2022/05/07 12:06:27;;;;;;;3.08;2.50;;;23.80;40.90;;;;;;5060288;28;20198;-71
2022/05/07 12:08:54;;;;;;;4.10;2.70;;;23.80;40.90;;;;;;5078886;28;20159;-73
2022/05/07 12:11:23;;;;;;;3.35;2.65;;;23.80;41.00;;;;;;5056561;28;20207;-68
2022/05/07 12:13:50;;;;;;;2.92;2.60;;;23.80;41.10;;;;;;5056325;28;20191;-71
2022/05/07 12:19:02;;;;;;;3.72;2.55;;;23.70;41.60;;;;;;5052799;28;20192;-72
2022/05/07 12:29:52;;;;;;;3.17;2.50;;;23.70;41.40;;;;;;5051798;28;20196;-72
2022/05/07 12:32:19;;;;;;;2.80;2.60;;;23.70;41.40;;;;;;5052834;28;20211;-72
2022/05/07 12:34:46;;;;;;;3.20;2.90;;;23.70;41.40;;;;;;5051656;28;20195;-72
2022/05/07 12:37:13;;;;;;;2.85;2.60;;;23.70;41.40;;;;;;5054993;28;20194;-71
2022/05/07 12:39:40;;;;;;;2.75;2.47;;;23.70;41.40;;;;;;5055205;28;20226;-72
2022/05/07 12:42:15;;;;;;;3.58;2.63;;;23.60;41.30;;;;;;5052733;28;20791;-71
2022/05/07 12:44:45;;;;;;;3.45;2.40;;;23.70;41.60;;;;;;5054218;28;20186;-72
2022/05/07 12:47:17;;;;;;;3.17;2.53;;;23.70;41.70;;;;;;5054974;28;20250;-69
2022/05/07 12:49:44;;;;;;;2.97;2.47;;;23.60;42.20;;;;;;5057943;28;20184;-70
2022/05/07 12:52:11;;;;;;;3.20;2.30;;;23.70;42.30;;;;;;5055924;28;20309;-69
2022/05/07 12:54:39;;;;;;;2.70;2.50;;;23.70;42.40;;;;;;5057142;28;20667;-69
2022/05/07 12:57:06;;;;;;;3.67;2.60;;;23.70;42.50;;;;;;5057423;28;20188;-73
2022/05/07 12:59:36;;;;;;;2.83;2.55;;;23.70;42.40;;;;;;5055509;28;20312;-73
2022/05/07 13:02:03;;;;;;;2.50;2.30;;;23.70;42.20;;;;;;5056263;28;20207;-71
2022/05/07 13:04:32;;;;;;;5.32;2.70;;;23.70;38.80;;;;;;5055423;28;20249;-72
2022/05/07 13:06:59;;;;;;;2.85;2.38;;;23.70;40.30;;;;;;5055802;28;20206;-69
2022/05/07 13:09:26;;;;;;;2.92;2.42;;;23.80;40.30;;;;;;5056525;28;20187;-69
2022/05/07 13:11:53;;;;;;;2.78;2.50;;;23.80;39.70;;;;;;5056266;28;20227;-69
2022/05/07 13:14:20;;;;;;;3.25;2.38;;;23.80;38.90;;;;;;5054978;28;20231;-69
2022/05/07 13:16:49;;;;;;;3.45;2.40;;;23.80;39.20;;;;;;5054849;28;20201;-69
2022/05/07 13:19:16;;;;;;;4.22;2.33;;;23.80;39.00;;;;;;5057893;28;20187;-69
2022/05/07 13:21:44;;;;;;;6.50;3.83;;;23.80;38.70;;;;;;5059444;28;20219;-69
2022/05/07 13:24:12;;;;;;;9.13;3.90;;;23.80;38.70;;;;;;5058787;28;20660;-69
2022/05/07 13:26:39;;;;;;;3.97;2.80;;;23.80;38.70;;;;;;5059050;28;20184;-69
2022/05/07 13:29:06;;;;;;;10.90;5.35;;;23.80;35.10;;;;;;5061641;28;20284;-69
2022/05/07 13:31:33;;;;;;;12.45;5.65;;;23.70;35.30;;;;;;5058613;28;20245;-69
2022/05/07 13:34:01;;;;;;;7.60;4.18;;;23.70;35.70;;;;;;5060169;28;20678;-69
2022/05/07 13:36:30;;;;;;;9.38;4.10;;;23.70;36.30;;;;;;5056399;28;20238;-69